createdAt,value
2017-08-23T00:00:14.027Z,6.43
2017-08-23T00:02:41.651Z,7.37
2017-08-23T00:05:09.315Z,7.80
2017-08-23T00:07:37.003Z,7.67
2017-08-23T00:10:04.712Z,8.07
2017-08-23T00:12:32.341Z,7.40
2017-08-23T00:15:00.004Z,6.93
2017-08-23T00:17:27.621Z,6.70
2017-08-23T00:19:55.247Z,6.37
2017-08-23T00:22:22.932Z,7.23
2017-08-23T00:24:50.546Z,7.50
2017-08-23T00:27:18.178Z,7.80
2017-08-23T00:29:45.857Z,9.30
2017-08-23T00:32:13.475Z,7.80
2017-08-23T00:34:41.108Z,7.23
2017-08-23T00:37:08.794Z,7.20
2017-08-23T00:39:36.416Z,7.40
2017-08-23T00:42:04.040Z,7.50
2017-08-23T00:44:31.796Z,8.10
2017-08-23T00:46:59.446Z,7.33
2017-08-23T00:49:27.086Z,7.80
2017-08-23T00:51:54.763Z,7.57
2017-08-23T00:54:22.409Z,7.73
2017-08-23T00:56:50.038Z,8.27
2017-08-23T00:59:17.767Z,7.67
2017-08-23T01:01:45.440Z,8.97
2017-08-23T01:04:13.067Z,6.80
2017-08-23T01:06:40.735Z,7.90
2017-08-23T01:09:08.356Z,8.93
2017-08-23T01:11:35.963Z,7.10
2017-08-23T01:14:03.644Z,8.00
2017-08-23T01:16:31.252Z,7.67
2017-08-23T01:18:58.873Z,9.10
2017-08-23T01:21:26.552Z,8.00
2017-08-23T01:23:54.163Z,8.40
2017-08-23T01:26:21.783Z,8.33
2017-08-23T01:28:49.528Z,7.10
2017-08-23T01:31:17.171Z,8.10
2017-08-23T01:33:44.795Z,7.60
2017-08-23T01:36:12.483Z,7.97
2017-08-23T01:38:40.091Z,8.23
2017-08-23T01:41:07.708Z,7.00
2017-08-23T01:43:35.384Z,8.53
2017-08-23T01:46:03.000Z,8.67
2017-08-23T01:48:30.631Z,9.40
2017-08-23T01:50:58.300Z,9.10
2017-08-23T01:53:25.931Z,7.67
2017-08-23T01:55:53.649Z,8.50
2017-08-23T01:58:22.096Z,7.03
2017-08-23T02:00:50.206Z,8.67
2017-08-23T02:03:17.856Z,7.50
2017-08-23T02:05:45.523Z,7.77
2017-08-23T02:08:13.145Z,8.17
2017-08-23T02:10:40.759Z,8.93
2017-08-23T02:13:08.428Z,8.27
2017-08-23T02:15:36.047Z,9.10
2017-08-23T02:18:03.684Z,8.50
2017-08-23T02:20:31.347Z,9.33
2017-08-23T02:22:58.963Z,8.47
2017-08-23T02:25:26.601Z,8.80
2017-08-23T02:27:54.277Z,8.80
2017-08-23T02:30:21.912Z,9.60
2017-08-23T02:32:49.551Z,8.77
2017-08-23T02:35:17.237Z,9.63
2017-08-23T02:37:44.859Z,8.47
2017-08-23T02:40:12.468Z,9.03
2017-08-23T02:42:40.159Z,8.50
2017-08-23T02:45:07.802Z,7.90
2017-08-23T02:47:35.398Z,6.90
2017-08-23T02:50:03.076Z,7.90
2017-08-23T02:52:30.685Z,7.40
2017-08-23T02:54:58.295Z,8.13
2017-08-23T02:57:25.991Z,8.20
2017-08-23T02:59:53.614Z,8.63
2017-08-23T03:02:21.240Z,7.80
2017-08-23T03:04:48.924Z,8.80
2017-08-23T03:07:16.539Z,8.50
2017-08-23T03:09:44.178Z,8.87
2017-08-23T03:12:12.536Z,8.07
2017-08-23T03:14:40.210Z,7.37
2017-08-23T03:17:08.582Z,8.70
2017-08-23T03:19:36.255Z,9.00
2017-08-23T03:22:03.876Z,8.30
2017-08-23T03:24:31.545Z,9.33
2017-08-23T03:26:59.207Z,8.10
2017-08-23T03:29:26.835Z,7.70
2017-08-23T03:31:54.459Z,7.93
2017-08-23T03:34:22.123Z,7.50
2017-08-23T03:36:49.736Z,7.70
2017-08-23T03:39:17.384Z,8.80
2017-08-23T03:41:45.046Z,7.47
2017-08-23T03:44:12.661Z,8.50
2017-08-23T03:46:40.282Z,8.70
2017-08-23T03:49:07.955Z,7.50
2017-08-23T03:51:35.636Z,9.63
2017-08-23T03:54:03.264Z,9.10
2017-08-23T03:56:31.054Z,8.37
2017-08-23T03:58:58.693Z,7.80
2017-08-23T04:01:26.303Z,8.27
2017-08-23T04:03:53.968Z,8.23
2017-08-23T04:06:21.579Z,8.20
2017-08-23T04:08:49.182Z,8.47
2017-08-23T04:11:16.875Z,7.43
2017-08-23T04:13:44.496Z,9.03
2017-08-23T04:16:12.159Z,8.10
2017-08-23T04:18:39.860Z,8.07
2017-08-23T04:21:07.532Z,6.30
2017-08-23T04:23:35.147Z,6.70
2017-08-23T04:26:02.808Z,8.80
2017-08-23T04:28:30.430Z,8.57
2017-08-23T04:30:58.088Z,9.00
2017-08-23T04:33:25.815Z,8.07
2017-08-23T04:35:53.445Z,8.43
2017-08-23T04:38:21.069Z,8.63
2017-08-23T04:40:48.768Z,7.70
2017-08-23T04:43:16.400Z,8.03
2017-08-23T04:45:44.012Z,7.17
2017-08-23T04:48:11.697Z,8.33
2017-08-23T04:50:39.335Z,10.30
2017-08-23T04:53:06.939Z,8.33
2017-08-23T04:55:34.603Z,9.87
2017-08-23T04:58:02.225Z,8.77
2017-08-23T05:00:29.824Z,9.00
2017-08-23T05:02:57.491Z,9.37
2017-08-23T05:05:25.086Z,8.30
2017-08-23T05:07:52.702Z,8.03
2017-08-23T05:10:20.440Z,7.67
2017-08-23T05:12:48.039Z,8.70
2017-08-23T05:15:15.648Z,7.53
2017-08-23T05:17:43.311Z,7.27
2017-08-23T05:20:10.927Z,8.33
2017-08-23T05:22:38.532Z,8.10
2017-08-23T05:25:06.196Z,8.00
2017-08-23T05:27:33.825Z,7.63
2017-08-23T05:30:01.463Z,7.90
2017-08-23T05:32:29.141Z,8.40
2017-08-23T05:34:56.758Z,7.77
2017-08-23T05:37:24.403Z,6.40
2017-08-23T05:39:52.063Z,7.70
2017-08-23T05:42:19.699Z,7.23
2017-08-23T05:44:47.360Z,8.40
2017-08-23T05:47:15.027Z,7.80
2017-08-23T05:49:42.653Z,7.87
2017-08-23T05:52:10.277Z,8.13
2017-08-23T05:54:38.041Z,7.63
2017-08-23T05:57:05.659Z,8.37
2017-08-23T05:59:33.272Z,7.13
2017-08-23T06:02:01.054Z,6.60
2017-08-23T06:04:28.679Z,6.97
2017-08-23T06:06:56.307Z,7.03
2017-08-23T06:09:23.984Z,6.30
2017-08-23T06:11:51.601Z,5.93
2017-08-23T06:14:19.221Z,6.47
2017-08-23T06:16:46.986Z,7.73
2017-08-23T06:19:14.619Z,7.40
2017-08-23T06:21:42.293Z,6.63
2017-08-23T06:24:09.974Z,6.97
2017-08-23T06:26:37.602Z,5.37
2017-08-23T06:29:05.215Z,7.33
2017-08-23T06:31:32.884Z,7.57
2017-08-23T06:34:00.514Z,6.00
2017-08-23T06:36:28.181Z,6.90
2017-08-23T06:38:55.988Z,6.73
2017-08-23T06:41:23.587Z,6.90
2017-08-23T06:43:51.201Z,7.03
2017-08-23T06:46:18.870Z,5.73
2017-08-23T06:48:46.486Z,6.83
2017-08-23T06:51:14.106Z,6.23
2017-08-23T06:53:41.802Z,6.20
2017-08-23T06:56:09.412Z,7.47
2017-08-23T06:58:37.028Z,6.03
2017-08-23T07:01:04.791Z,6.50
2017-08-23T07:03:32.418Z,6.23
2017-08-23T07:06:00.044Z,7.00
2017-08-23T07:08:27.718Z,7.20
2017-08-23T07:10:55.328Z,7.13
2017-08-23T07:13:22.932Z,6.37
2017-08-23T07:15:50.617Z,5.60
2017-08-23T07:18:18.239Z,6.70
2017-08-23T07:20:46.248Z,6.50
2017-08-23T07:23:14.010Z,5.67
2017-08-23T07:25:41.629Z,5.83
2017-08-23T07:28:09.233Z,5.20
2017-08-23T07:30:37.663Z,5.80
2017-08-23T07:33:05.302Z,6.47
2017-08-23T07:35:32.918Z,5.53
2017-08-23T07:38:00.711Z,5.67
2017-08-23T07:40:28.352Z,5.10
2017-08-23T07:42:55.974Z,5.43
2017-08-23T07:45:23.649Z,4.80
2017-08-23T07:47:51.271Z,4.93
2017-08-23T07:50:18.893Z,5.03
2017-08-23T07:52:46.592Z,4.90
2017-08-23T07:55:14.215Z,5.37
2017-08-23T07:57:41.839Z,4.70
2017-08-23T08:00:09.519Z,4.67
2017-08-23T08:02:37.191Z,5.03
2017-08-23T08:05:04.804Z,5.00
2017-08-23T08:07:32.477Z,4.90
2017-08-23T08:10:00.587Z,4.70
2017-08-23T08:12:28.250Z,5.70
2017-08-23T08:14:55.931Z,5.73
2017-08-23T08:17:23.559Z,5.37
2017-08-23T08:19:51.871Z,5.07
2017-08-23T08:22:21.704Z,4.70
2017-08-23T08:24:49.348Z,5.53
2017-08-23T08:27:16.970Z,4.77
2017-08-23T08:29:44.623Z,4.83
2017-08-23T08:32:12.232Z,4.63
2017-08-23T08:34:39.851Z,4.90
2017-08-23T08:37:07.512Z,4.50
2017-08-23T08:39:35.123Z,5.00
2017-08-23T08:42:02.753Z,4.90
2017-08-23T08:44:30.455Z,4.83
2017-08-23T08:46:58.115Z,4.13
2017-08-23T08:49:25.728Z,4.00
2017-08-23T08:51:53.388Z,4.33
2017-08-23T08:54:21.004Z,4.70
2017-08-23T08:56:48.639Z,4.30
2017-08-23T08:59:16.296Z,4.50
2017-08-23T09:01:43.907Z,4.33
2017-08-23T09:04:11.517Z,5.40
2017-08-23T09:06:39.192Z,4.40
2017-08-23T09:09:06.811Z,4.73
2017-08-23T09:11:34.422Z,5.00
2017-08-23T09:14:02.103Z,4.40
2017-08-23T09:16:29.741Z,4.87
2017-08-23T09:18:57.377Z,5.33
2017-08-23T09:21:25.056Z,4.77
2017-08-23T09:23:52.661Z,4.30
2017-08-23T09:26:20.336Z,4.70
2017-08-23T09:28:47.998Z,3.70
2017-08-23T09:31:15.645Z,3.73
2017-08-23T09:33:43.277Z,5.10
2017-08-23T09:36:11.056Z,3.97
2017-08-23T09:38:39.445Z,4.97
2017-08-23T09:41:07.059Z,4.03
2017-08-23T09:43:34.727Z,4.43
2017-08-23T09:46:02.344Z,4.87
2017-08-23T09:48:29.967Z,3.37
2017-08-23T09:50:57.671Z,5.13
2017-08-23T09:53:25.304Z,4.00
2017-08-23T09:55:52.915Z,4.77
2017-08-23T09:58:20.564Z,4.17
2017-08-23T10:00:48.217Z,3.80
2017-08-23T10:03:15.826Z,4.20
2017-08-23T10:05:43.487Z,3.30
2017-08-23T10:08:11.100Z,4.27
2017-08-23T10:10:38.711Z,4.20
2017-08-23T10:13:06.390Z,4.27
2017-08-23T10:15:34.036Z,4.00
2017-08-23T10:18:01.646Z,3.83
2017-08-23T10:20:29.326Z,4.07
2017-08-23T10:22:56.960Z,4.57
2017-08-23T10:25:24.585Z,4.60
2017-08-23T10:27:52.315Z,4.77
2017-08-23T10:30:19.939Z,4.60
2017-08-23T10:32:47.540Z,4.40
2017-08-23T10:35:15.211Z,3.53
2017-08-23T10:37:42.852Z,4.43
2017-08-23T10:40:10.471Z,3.53
2017-08-23T10:42:38.130Z,3.77
2017-08-23T10:45:05.749Z,3.73
2017-08-23T10:47:33.380Z,3.60
2017-08-23T10:50:01.157Z,3.50
2017-08-23T10:52:28.783Z,4.40
2017-08-23T10:54:56.428Z,4.80
2017-08-23T10:57:24.186Z,4.20
2017-08-23T10:59:51.818Z,3.37
2017-08-23T11:02:19.449Z,3.53
2017-08-23T11:04:47.159Z,5.63
2017-08-23T11:07:14.784Z,4.30
2017-08-23T11:09:42.387Z,4.27
2017-08-23T11:12:10.057Z,5.17
2017-08-23T11:14:37.669Z,4.53
2017-08-23T11:17:05.282Z,4.73
2017-08-23T11:19:33.045Z,4.23
2017-08-23T11:22:00.652Z,4.23
2017-08-23T11:24:28.332Z,4.30
2017-08-23T11:26:56.121Z,4.63
2017-08-23T11:29:23.749Z,5.40
2017-08-23T11:31:51.374Z,4.80
2017-08-23T11:34:19.058Z,4.00
2017-08-23T11:36:47.580Z,3.20
2017-08-23T11:39:15.233Z,4.23
2017-08-23T11:41:43.008Z,3.47
2017-08-23T11:44:10.631Z,4.37
2017-08-23T11:46:38.298Z,3.10
2017-08-23T11:49:05.959Z,4.23
2017-08-23T11:51:33.563Z,4.90
2017-08-23T11:54:01.193Z,4.07
2017-08-23T11:56:28.880Z,4.30
2017-08-23T11:58:56.532Z,3.90
2017-08-23T12:01:24.199Z,4.67
2017-08-23T12:03:52.044Z,5.07
2017-08-23T12:06:19.631Z,4.50
2017-08-23T12:08:47.255Z,3.83
2017-08-23T12:11:14.906Z,3.60
2017-08-23T12:13:42.573Z,3.80
2017-08-23T12:16:10.171Z,5.10
2017-08-23T12:18:37.851Z,4.47
2017-08-23T12:21:05.458Z,3.37
2017-08-23T12:23:33.088Z,4.73
2017-08-23T12:26:01.144Z,4.17
2017-08-23T12:28:28.850Z,4.67
2017-08-23T12:30:56.470Z,4.07
2017-08-23T12:33:24.265Z,3.23
2017-08-23T12:35:52.586Z,3.83
2017-08-23T12:38:20.219Z,3.40
2017-08-23T12:40:47.966Z,4.47
2017-08-23T12:43:15.563Z,4.40
2017-08-23T12:45:43.180Z,4.03
2017-08-23T12:48:10.844Z,3.47
2017-08-23T12:50:38.510Z,4.87
2017-08-23T12:53:06.152Z,3.50
2017-08-23T12:55:33.924Z,3.40
2017-08-23T12:58:01.545Z,4.20
2017-08-23T13:00:29.181Z,4.50
2017-08-23T13:02:56.868Z,5.13
2017-08-23T13:05:24.512Z,3.70
2017-08-23T13:07:52.173Z,4.20
2017-08-23T13:10:19.853Z,3.77
2017-08-23T13:12:47.470Z,3.40
2017-08-23T13:15:15.115Z,3.97
2017-08-23T13:17:42.795Z,3.43
2017-08-23T13:20:10.421Z,4.33
2017-08-23T13:22:38.044Z,4.30
2017-08-23T13:25:05.757Z,3.93
2017-08-23T13:27:33.376Z,3.70
2017-08-23T13:30:01.003Z,3.67
2017-08-23T13:32:28.694Z,3.80
2017-08-23T13:34:56.323Z,4.00
2017-08-23T13:37:23.928Z,3.70
2017-08-23T13:39:51.638Z,4.87
2017-08-23T13:42:19.263Z,4.03
2017-08-23T13:44:46.870Z,4.17
2017-08-23T13:47:15.340Z,3.90
2017-08-23T13:49:43.009Z,4.10
2017-08-23T13:52:10.627Z,3.87
2017-08-23T13:54:38.292Z,3.43
2017-08-23T13:57:05.924Z,4.10
2017-08-23T13:59:33.564Z,4.30
2017-08-23T14:02:01.253Z,4.50
2017-08-23T14:04:28.861Z,3.97
2017-08-23T14:06:56.483Z,4.03
2017-08-23T14:09:24.155Z,3.13
2017-08-23T14:11:51.791Z,4.13
2017-08-23T14:14:19.395Z,3.87
2017-08-23T14:16:47.055Z,3.73
2017-08-23T14:19:14.662Z,3.37
2017-08-23T14:21:42.272Z,3.67
2017-08-23T14:24:09.943Z,4.00
2017-08-23T14:26:37.550Z,4.07
2017-08-23T14:29:05.151Z,4.00
2017-08-23T14:31:32.866Z,4.20
2017-08-23T14:34:00.479Z,4.37
2017-08-23T14:36:28.104Z,3.20
2017-08-23T14:38:55.765Z,4.13
2017-08-23T14:41:23.373Z,3.67
2017-08-23T14:43:50.995Z,3.80
2017-08-23T14:46:18.655Z,3.77
2017-08-23T14:48:46.255Z,4.00
2017-08-23T14:51:13.860Z,3.70
2017-08-23T14:53:41.534Z,3.97
2017-08-23T14:56:09.144Z,4.03
2017-08-23T14:58:36.760Z,4.00
2017-08-23T15:01:04.547Z,4.17
2017-08-23T15:03:32.154Z,4.43
2017-08-23T15:05:59.763Z,4.43
2017-08-23T15:08:27.434Z,4.10
2017-08-23T15:10:55.047Z,3.67
2017-08-23T15:13:22.652Z,3.90
2017-08-23T15:15:50.315Z,3.70
2017-08-23T15:18:17.944Z,3.93
2017-08-23T15:20:45.632Z,3.90
2017-08-23T15:23:13.276Z,3.73
2017-08-23T15:25:40.916Z,4.00
2017-08-23T15:28:08.551Z,3.10
2017-08-23T15:30:36.162Z,4.17
2017-08-23T15:33:03.848Z,3.97
2017-08-23T15:35:31.781Z,4.40
2017-08-23T15:37:59.483Z,3.30
2017-08-23T15:40:27.379Z,4.03
2017-08-23T15:42:57.084Z,4.50
2017-08-23T15:45:25.403Z,3.97
2017-08-23T15:47:54.262Z,3.63
2017-08-23T15:50:22.225Z,4.20
2017-08-23T15:52:52.491Z,3.90
2017-08-23T15:55:20.170Z,3.60
2017-08-23T15:57:47.774Z,4.30
2017-08-23T16:00:15.391Z,4.47
2017-08-23T16:02:43.043Z,4.70
2017-08-23T16:05:10.659Z,4.50
2017-08-23T16:07:38.278Z,4.83
2017-08-23T16:10:06.041Z,5.20
2017-08-23T16:12:33.657Z,5.00
2017-08-23T16:15:01.267Z,4.40
2017-08-23T16:17:28.938Z,4.70
2017-08-23T16:19:56.552Z,4.40
2017-08-23T16:22:24.167Z,4.40
2017-08-23T16:24:51.928Z,4.20
2017-08-23T16:27:19.550Z,4.30
2017-08-23T16:29:47.168Z,3.90
2017-08-23T16:32:14.827Z,3.60
2017-08-23T16:34:42.443Z,3.37
2017-08-23T16:37:10.065Z,4.17
2017-08-23T16:39:37.730Z,4.90
2017-08-23T16:42:05.351Z,4.67
2017-08-23T16:44:32.972Z,3.90
2017-08-23T16:47:00.777Z,4.67
2017-08-23T16:49:28.956Z,4.37
2017-08-23T16:51:57.032Z,4.30
2017-08-23T16:54:25.446Z,4.50
2017-08-23T16:56:53.597Z,4.33
2017-08-23T16:59:21.756Z,3.70
2017-08-23T17:01:49.867Z,4.17
2017-08-23T17:04:17.568Z,4.03
2017-08-23T17:06:45.630Z,4.23
2017-08-23T17:09:13.667Z,4.00
2017-08-23T17:11:41.614Z,4.50
2017-08-23T17:14:09.343Z,4.20
2017-08-23T17:16:37.028Z,5.10
2017-08-23T17:19:04.649Z,4.67
2017-08-23T17:21:32.285Z,4.97
2017-08-23T17:23:59.994Z,5.57
2017-08-23T17:26:27.634Z,4.23
2017-08-23T17:28:55.252Z,3.73
2017-08-23T17:31:22.935Z,5.10
2017-08-23T17:33:50.551Z,4.80
2017-08-23T17:36:18.160Z,4.37
2017-08-23T17:38:45.854Z,4.53
2017-08-23T17:41:13.452Z,4.27
2017-08-23T17:43:41.063Z,4.60
2017-08-23T17:46:08.734Z,3.77
2017-08-23T17:48:36.355Z,3.40
2017-08-23T17:51:03.984Z,4.57
2017-08-23T17:53:31.743Z,4.50
2017-08-23T17:55:59.392Z,4.97
2017-08-23T17:58:26.994Z,3.80
2017-08-23T18:00:54.759Z,4.70
2017-08-23T18:03:22.378Z,4.73
2017-08-23T18:05:49.981Z,4.87
2017-08-23T18:08:17.632Z,4.73
2017-08-23T18:10:45.244Z,5.77
2017-08-23T18:13:12.864Z,4.60
2017-08-23T18:15:40.526Z,4.87
2017-08-23T18:18:08.148Z,5.20
2017-08-23T18:20:35.798Z,4.83
2017-08-23T18:23:03.864Z,5.30
2017-08-23T18:25:31.515Z,5.07
2017-08-23T18:27:59.226Z,4.40
2017-08-23T18:30:26.956Z,5.80
2017-08-23T18:32:54.620Z,5.83
2017-08-23T18:35:22.409Z,5.00
2017-08-23T18:37:50.503Z,5.63
2017-08-23T18:40:18.175Z,5.80
2017-08-23T18:42:45.912Z,7.00
2017-08-23T18:45:13.801Z,10.63
2017-08-23T18:47:41.922Z,7.40
2017-08-23T18:50:09.840Z,5.70
2017-08-23T18:52:37.754Z,5.00
2017-08-23T18:55:05.595Z,5.10
2017-08-23T18:57:33.346Z,6.47
2017-08-23T19:00:01.230Z,5.57
2017-08-23T19:02:29.472Z,5.90
2017-08-23T19:04:57.433Z,6.03
2017-08-23T19:07:25.524Z,5.33
2017-08-23T19:09:53.409Z,6.03
2017-08-23T19:12:21.297Z,8.70
2017-08-23T19:14:49.209Z,8.90
2017-08-23T19:17:17.044Z,7.90
2017-08-23T19:19:44.777Z,7.47
2017-08-23T19:22:12.526Z,5.80
2017-08-23T19:24:40.194Z,7.27
2017-08-23T19:27:07.816Z,6.77
2017-08-23T19:29:35.512Z,6.97
2017-08-23T19:32:03.203Z,7.17
2017-08-23T19:34:30.946Z,7.10
2017-08-23T19:36:59.027Z,7.40
2017-08-23T19:39:26.748Z,6.80
2017-08-23T19:41:54.552Z,6.30
2017-08-23T19:44:22.493Z,6.57
2017-08-23T19:46:50.248Z,6.73
2017-08-23T19:49:18.052Z,6.77
2017-08-23T19:51:46.028Z,7.27
2017-08-23T19:54:13.849Z,7.50
2017-08-23T19:56:41.719Z,8.47
2017-08-23T19:59:09.572Z,8.10
2017-08-23T20:01:37.414Z,7.10
2017-08-23T20:04:05.211Z,8.30
2017-08-23T20:06:33.109Z,8.43
2017-08-23T20:09:00.859Z,8.47
2017-08-23T20:11:28.557Z,7.83
2017-08-23T20:13:56.391Z,8.27
2017-08-23T20:16:24.222Z,7.70
2017-08-23T20:18:51.923Z,7.37
2017-08-23T20:21:19.697Z,7.67
2017-08-23T20:23:47.404Z,7.50
2017-08-23T20:26:15.086Z,7.43
2017-08-23T20:28:42.889Z,8.17
2017-08-23T20:31:10.617Z,7.70
2017-08-23T20:33:38.327Z,8.43
2017-08-23T20:36:06.064Z,7.97
2017-08-23T20:38:33.794Z,8.03
2017-08-23T20:41:01.616Z,7.37
2017-08-23T20:43:29.340Z,8.10
2017-08-23T20:45:57.003Z,7.23
2017-08-23T20:48:24.648Z,7.60
2017-08-23T20:50:52.368Z,7.67
2017-08-23T20:53:20.294Z,7.73
2017-08-23T20:55:48.100Z,7.93
2017-08-23T20:58:15.883Z,8.63
2017-08-23T21:00:43.669Z,8.23
2017-08-23T21:03:11.383Z,7.40
2017-08-23T21:05:39.536Z,7.80
2017-08-23T21:08:07.609Z,7.40
2017-08-23T21:10:35.672Z,8.10
2017-08-23T21:13:03.606Z,7.70
2017-08-23T21:15:31.546Z,7.03
2017-08-23T21:17:59.551Z,8.60
2017-08-23T21:20:27.489Z,6.80
2017-08-23T21:22:55.605Z,7.97
2017-08-23T21:25:23.708Z,6.83
2017-08-23T21:27:51.547Z,7.67
2017-08-23T21:30:19.246Z,6.73
2017-08-23T21:32:46.986Z,7.50
2017-08-23T21:35:14.940Z,6.53
2017-08-23T21:37:42.693Z,7.70
2017-08-23T21:40:10.550Z,7.20
2017-08-23T21:42:38.525Z,8.13
2017-08-23T21:45:06.951Z,6.97
2017-08-23T21:47:34.710Z,7.07
2017-08-23T21:50:02.601Z,7.33
2017-08-23T21:52:30.529Z,6.73
2017-08-23T21:54:58.160Z,7.60
2017-08-23T21:57:26.028Z,7.77
2017-08-23T21:59:53.664Z,7.87
2017-08-23T22:02:21.299Z,7.57
2017-08-23T22:04:48.970Z,8.60
2017-08-23T22:07:16.603Z,7.73
2017-08-23T22:09:44.219Z,7.73
2017-08-23T22:12:11.878Z,8.90
2017-08-23T22:14:39.498Z,7.67
2017-08-23T22:17:07.164Z,9.33
2017-08-23T22:19:34.935Z,8.60
2017-08-23T22:22:02.580Z,7.80
2017-08-23T22:24:30.209Z,8.33
2017-08-23T22:26:57.964Z,8.77
2017-08-23T22:29:25.587Z,8.33
2017-08-23T22:31:53.210Z,8.87
2017-08-23T22:34:20.918Z,7.97
2017-08-23T22:36:48.537Z,8.23
2017-08-23T22:39:16.184Z,9.00
2017-08-23T22:41:43.860Z,8.30
2017-08-23T22:44:11.499Z,7.77
2017-08-23T22:46:39.128Z,7.70
2017-08-23T22:49:06.791Z,7.23
2017-08-23T22:51:34.423Z,8.73
2017-08-23T22:54:02.057Z,8.57
2017-08-23T22:56:29.804Z,9.10
2017-08-23T22:58:57.442Z,8.80
2017-08-23T23:01:25.059Z,8.60
2017-08-23T23:03:52.755Z,8.30
2017-08-23T23:06:20.376Z,8.57
2017-08-23T23:08:47.982Z,8.47
2017-08-23T23:11:15.663Z,7.77
2017-08-23T23:13:43.299Z,9.63
2017-08-23T23:16:10.945Z,8.50
2017-08-23T23:18:38.604Z,7.80
2017-08-23T23:21:06.219Z,8.63
2017-08-23T23:23:33.873Z,9.00
2017-08-23T23:26:01.546Z,8.20
2017-08-23T23:28:29.172Z,8.17
2017-08-23T23:30:56.804Z,8.20
2017-08-23T23:33:24.592Z,8.40
2017-08-23T23:35:52.204Z,7.50
2017-08-23T23:38:19.834Z,9.07
2017-08-23T23:40:47.524Z,9.20
2017-08-23T23:43:15.152Z,8.30
2017-08-23T23:45:42.784Z,8.47
2017-08-23T23:48:10.493Z,7.57
2017-08-23T23:50:38.126Z,9.23
2017-08-23T23:53:05.752Z,8.60
2017-08-23T23:55:33.453Z,8.10
2017-08-23T23:58:01.107Z,8.93
